sensor_id;sensor_type;location;lat;lon;timestamp;pressure;altitude;pressure_sealevel;temperature;humidity
75247;BME280;63844;50.042;19.224;2023-04-03T00:00:31;99435.73;;;1.55;89.50
75247;BME280;63844;50.042;19.224;2023-04-03T00:03:13;99435.55;;;1.55;88.98
75247;BME280;63844;50.042;19.224;2023-04-03T00:05:40;99430.77;;;1.59;88.98
75247;BME280;63844;50.042;19.224;2023-04-03T00:08:07;99434.58;;;1.60;89.14
75247;BME280;63844;50.042;19.224;2023-04-03T00:10:36;99433.46;;;1.63;89.13
75247;BME280;63844;50.042;19.224;2023-04-03T00:13:04;99436.23;;;1.65;89.16
75247;BME280;63844;50.042;19.224;2023-04-03T00:15:31;99437.66;;;1.63;89.13
75247;BME280;63844;50.042;19.224;2023-04-03T00:17:58;99435.85;;;1.66;89.27
75247;BME280;63844;50.042;19.224;2023-04-03T00:20:24;99436.83;;;1.69;89.21
75247;BME280;63844;50.042;19.224;2023-04-03T00:22:51;99436.08;;;1.71;88.77
75247;BME280;63844;50.042;19.224;2023-04-03T00:25:18;99435.82;;;1.74;88.83
75247;BME280;63844;50.042;19.224;2023-04-03T00:27:45;99435.98;;;1.75;88.51
75247;BME280;63844;50.042;19.224;2023-04-03T00:30:14;99435.04;;;1.78;88.17
75247;BME280;63844;50.042;19.224;2023-04-03T00:32:42;99435.22;;;1.78;87.72
75247;BME280;63844;50.042;19.224;2023-04-03T00:35:09;99438.70;;;1.78;87.24
75247;BME280;63844;50.042;19.224;2023-04-03T00:37:36;99436.73;;;1.79;87.02
75247;BME280;63844;50.042;19.224;2023-04-03T00:40:04;99441.77;;;1.82;87.03
75247;BME280;63844;50.042;19.224;2023-04-03T00:42:30;99438.42;;;1.82;86.70
75247;BME280;63844;50.042;19.224;2023-04-03T00:47:24;99438.96;;;1.82;86.08
75247;BME280;63844;50.042;19.224;2023-04-03T00:49:51;99440.04;;;1.81;85.97
75247;BME280;63844;50.042;19.224;2023-04-03T00:52:21;99443.15;;;1.82;86.41
75247;BME280;63844;50.042;19.224;2023-04-03T00:54:52;99440.79;;;1.78;85.61
75247;BME280;63844;50.042;19.224;2023-04-03T00:57:21;99441.91;;;1.75;85.74
75247;BME280;63844;50.042;19.224;2023-04-03T00:59:51;99442.23;;;1.76;85.60
75247;BME280;63844;50.042;19.224;2023-04-03T01:02:19;99442.77;;;1.76;85.35
75247;BME280;63844;50.042;19.224;2023-04-03T01:04:46;99448.89;;;1.75;85.01
75247;BME280;63844;50.042;19.224;2023-04-03T01:07:19;99450.34;;;1.73;85.03
75247;BME280;63844;50.042;19.224;2023-04-03T01:09:48;99452.97;;;1.65;84.73
75247;BME280;63844;50.042;19.224;2023-04-03T01:12:23;99451.02;;;1.66;85.29
75247;BME280;63844;50.042;19.224;2023-04-03T01:14:51;99452.49;;;1.63;84.81
75247;BME280;63844;50.042;19.224;2023-04-03T01:17:35;99452.30;;;1.63;84.81
75247;BME280;63844;50.042;19.224;2023-04-03T01:25:30;99463.48;;;1.63;84.10
75247;BME280;63844;50.042;19.224;2023-04-03T01:27:56;99460.52;;;1.62;84.05
75247;BME280;63844;50.042;19.224;2023-04-03T01:30:32;99466.45;;;1.63;84.12
75247;BME280;63844;50.042;19.224;2023-04-03T01:32:59;99468.12;;;1.58;83.39
75247;BME280;63844;50.042;19.224;2023-04-03T01:35:26;99466.30;;;1.62;83.71
75247;BME280;63844;50.042;19.224;2023-04-03T01:37:52;99465.30;;;1.59;83.47
75247;BME280;63844;50.042;19.224;2023-04-03T01:40:19;99466.75;;;1.57;83.81
75247;BME280;63844;50.042;19.224;2023-04-03T01:42:45;99470.27;;;1.55;83.91
75247;BME280;63844;50.042;19.224;2023-04-03T01:45:12;99472.91;;;1.53;84.17
75247;BME280;63844;50.042;19.224;2023-04-03T01:47:38;99472.53;;;1.55;84.97
75247;BME280;63844;50.042;19.224;2023-04-03T01:50:05;99472.50;;;1.57;84.75
75247;BME280;63844;50.042;19.224;2023-04-03T01:52:32;99472.84;;;1.57;84.83
75247;BME280;63844;50.042;19.224;2023-04-03T01:54:58;99474.52;;;1.60;84.83
75247;BME280;63844;50.042;19.224;2023-04-03T01:57:25;99473.34;;;1.59;85.17
75247;BME280;63844;50.042;19.224;2023-04-03T01:59:51;99472.34;;;1.57;85.46
75247;BME280;63844;50.042;19.224;2023-04-03T02:02:18;99476.55;;;1.55;85.57
75247;BME280;63844;50.042;19.224;2023-04-03T02:04:46;99478.73;;;1.51;85.55
75247;BME280;63844;50.042;19.224;2023-04-03T02:07:12;99476.90;;;1.47;85.46
75247;BME280;63844;50.042;19.224;2023-04-03T02:09:39;99476.55;;;1.47;85.66
75247;BME280;63844;50.042;19.224;2023-04-03T02:12:06;99479.14;;;1.48;85.93
75247;BME280;63844;50.042;19.224;2023-04-03T02:14:32;99481.01;;;1.51;85.78
75247;BME280;63844;50.042;19.224;2023-04-03T02:17:00;99483.83;;;1.49;85.87
75247;BME280;63844;50.042;19.224;2023-04-03T02:19:27;99487.55;;;1.47;86.03
75247;BME280;63844;50.042;19.224;2023-04-03T02:21:53;99486.16;;;1.46;85.83
75247;BME280;63844;50.042;19.224;2023-04-03T02:24:20;99492.63;;;1.45;86.33
75247;BME280;63844;50.042;19.224;2023-04-03T02:26:47;99488.80;;;1.45;86.24
75247;BME280;63844;50.042;19.224;2023-04-03T02:29:13;99492.92;;;1.48;86.24
75247;BME280;63844;50.042;19.224;2023-04-03T02:31:40;99488.72;;;1.49;86.32
75247;BME280;63844;50.042;19.224;2023-04-03T02:34:06;99488.35;;;1.50;86.35
75247;BME280;63844;50.042;19.224;2023-04-03T02:36:32;99489.34;;;1.45;86.23
75247;BME280;63844;50.042;19.224;2023-04-03T02:38:59;99489.43;;;1.40;86.54
75247;BME280;63844;50.042;19.224;2023-04-03T02:41:25;99493.66;;;1.38;86.42
75247;BME280;63844;50.042;19.224;2023-04-03T02:44:00;99494.41;;;1.35;86.73
75247;BME280;63844;50.042;19.224;2023-04-03T02:46:26;99495.71;;;1.32;87.15
75247;BME280;63844;50.042;19.224;2023-04-03T02:48:52;99496.52;;;1.35;87.19
75247;BME280;63844;50.042;19.224;2023-04-03T02:51:19;99496.31;;;1.36;86.78
75247;BME280;63844;50.042;19.224;2023-04-03T02:53:46;99490.38;;;1.36;86.47
75247;BME280;63844;50.042;19.224;2023-04-03T02:56:12;99500.18;;;1.35;86.20
75247;BME280;63844;50.042;19.224;2023-04-03T02:58:39;99499.66;;;1.35;86.30
75247;BME280;63844;50.042;19.224;2023-04-03T03:01:05;99502.45;;;1.34;85.88
75247;BME280;63844;50.042;19.224;2023-04-03T03:03:32;99505.77;;;1.34;85.56
75247;BME280;63844;50.042;19.224;2023-04-03T03:06:12;99506.34;;;1.41;85.82
75247;BME280;63844;50.042;19.224;2023-04-03T03:08:40;99506.70;;;1.40;85.73
75247;BME280;63844;50.042;19.224;2023-04-03T03:11:07;99508.18;;;1.36;85.68
75247;BME280;63844;50.042;19.224;2023-04-03T03:13:34;99507.86;;;1.35;85.43
75247;BME280;63844;50.042;19.224;2023-04-03T03:16:01;99509.61;;;1.34;85.38
75247;BME280;63844;50.042;19.224;2023-04-03T03:18:28;99508.73;;;1.35;85.24
75247;BME280;63844;50.042;19.224;2023-04-03T03:20:58;99511.64;;;1.38;85.20
75247;BME280;63844;50.042;19.224;2023-04-03T03:23:26;99512.98;;;1.40;85.32
75247;BME280;63844;50.042;19.224;2023-04-03T03:26:01;99513.35;;;1.39;85.43
75247;BME280;63844;50.042;19.224;2023-04-03T03:28:28;99514.65;;;1.35;84.98
75247;BME280;63844;50.042;19.224;2023-04-03T03:30:54;99516.35;;;1.37;85.46
75247;BME280;63844;50.042;19.224;2023-04-03T03:33:21;99516.62;;;1.33;84.86
75247;BME280;63844;50.042;19.224;2023-04-03T03:35:48;99518.73;;;1.23;84.62
75247;BME280;63844;50.042;19.224;2023-04-03T03:38:14;99519.67;;;1.19;84.79
75247;BME280;63844;50.042;19.224;2023-04-03T03:40:41;99519.98;;;1.21;84.77
75247;BME280;63844;50.042;19.224;2023-04-03T03:43:07;99518.48;;;1.18;84.20
75247;BME280;63844;50.042;19.224;2023-04-03T03:45:34;99522.19;;;1.16;83.95
75247;BME280;63844;50.042;19.224;2023-04-03T03:48:01;99520.85;;;1.12;84.15
75247;BME280;63844;50.042;19.224;2023-04-03T03:50:28;99525.05;;;1.12;84.25
75247;BME280;63844;50.042;19.224;2023-04-03T03:52:54;99529.83;;;1.08;84.75
75247;BME280;63844;50.042;19.224;2023-04-03T03:55:21;99533.39;;;1.04;84.99
75247;BME280;63844;50.042;19.224;2023-04-03T03:57:48;99535.31;;;0.94;84.85
75247;BME280;63844;50.042;19.224;2023-04-03T04:00:14;99533.45;;;0.90;85.44
75247;BME280;63844;50.042;19.224;2023-04-03T04:02:42;99538.77;;;0.85;85.33
75247;BME280;63844;50.042;19.224;2023-04-03T04:05:09;99538.82;;;0.83;85.74
75247;BME280;63844;50.042;19.224;2023-04-03T04:07:35;99544.53;;;0.76;86.12
75247;BME280;63844;50.042;19.224;2023-04-03T04:10:02;99546.31;;;0.74;86.77
75247;BME280;63844;50.042;19.224;2023-04-03T04:12:29;99545.02;;;0.67;87.07
75247;BME280;63844;50.042;19.224;2023-04-03T04:14:56;99548.12;;;0.58;87.84
75247;BME280;63844;50.042;19.224;2023-04-03T04:17:22;99549.08;;;0.52;88.85
75247;BME280;63844;50.042;19.224;2023-04-03T04:19:49;99550.30;;;0.53;89.05
75247;BME280;63844;50.042;19.224;2023-04-03T04:22:16;99554.52;;;0.51;88.77
75247;BME280;63844;50.042;19.224;2023-04-03T04:24:42;99559.59;;;0.50;88.75
75247;BME280;63844;50.042;19.224;2023-04-03T04:27:09;99554.93;;;0.47;88.66
75247;BME280;63844;50.042;19.224;2023-04-03T04:29:35;99553.35;;;0.37;88.79
75247;BME280;63844;50.042;19.224;2023-04-03T04:32:03;99560.42;;;0.30;89.14
75247;BME280;63844;50.042;19.224;2023-04-03T04:34:30;99562.91;;;0.27;89.11
75247;BME280;63844;50.042;19.224;2023-04-03T04:36:57;99563.99;;;0.25;89.35
75247;BME280;63844;50.042;19.224;2023-04-03T04:39:23;99565.09;;;0.20;89.27
75247;BME280;63844;50.042;19.224;2023-04-03T04:41:49;99567.84;;;0.22;89.38
75247;BME280;63844;50.042;19.224;2023-04-03T04:44:16;99572.70;;;0.24;89.53
75247;BME280;63844;50.042;19.224;2023-04-03T04:46:43;99573.55;;;0.26;90.00
75247;BME280;63844;50.042;19.224;2023-04-03T04:49:09;99573.67;;;0.29;89.05
75247;BME280;63844;50.042;19.224;2023-04-03T04:51:36;99573.69;;;0.28;89.99
75247;BME280;63844;50.042;19.224;2023-04-03T04:54:02;99578.23;;;0.26;89.41
75247;BME280;63844;50.042;19.224;2023-04-03T04:56:29;99584.22;;;0.21;89.50
75247;BME280;63844;50.042;19.224;2023-04-03T04:58:55;99584.09;;;0.18;90.17
75247;BME280;63844;50.042;19.224;2023-04-03T05:01:22;99587.39;;;0.19;90.23
75247;BME280;63844;50.042;19.224;2023-04-03T05:03:48;99588.73;;;0.21;90.10
75247;BME280;63844;50.042;19.224;2023-04-03T05:06:15;99590.98;;;0.23;89.57
75247;BME280;63844;50.042;19.224;2023-04-03T05:08:42;99593.63;;;0.21;89.39
75247;BME280;63844;50.042;19.224;2023-04-03T05:11:08;99596.30;;;0.16;88.63
75247;BME280;63844;50.042;19.224;2023-04-03T05:13:35;99601.11;;;0.07;87.69
75247;BME280;63844;50.042;19.224;2023-04-03T05:16:01;99599.48;;;0.14;87.92
75247;BME280;63844;50.042;19.224;2023-04-03T05:18:28;99601.34;;;0.16;87.57
75247;BME280;63844;50.042;19.224;2023-04-03T05:20:54;99606.17;;;0.19;87.84
75247;BME280;63844;50.042;19.224;2023-04-03T05:23:21;99611.23;;;0.19;87.10
75247;BME280;63844;50.042;19.224;2023-04-03T05:25:47;99612.55;;;0.11;86.46
75247;BME280;63844;50.042;19.224;2023-04-03T05:28:15;99616.62;;;0.08;86.83
75247;BME280;63844;50.042;19.224;2023-04-03T05:30:41;99621.89;;;0.03;87.13
75247;BME280;63844;50.042;19.224;2023-04-03T05:33:08;99627.13;;;0.02;87.26
75247;BME280;63844;50.042;19.224;2023-04-03T05:35:36;99627.33;;;0.01;87.60
75247;BME280;63844;50.042;19.224;2023-04-03T05:38:07;99626.75;;;0.04;87.53
75247;BME280;63844;50.042;19.224;2023-04-03T05:40:33;99631.80;;;0.04;87.75
75247;BME280;63844;50.042;19.224;2023-04-03T05:43:00;99633.20;;;0.04;87.95
75247;BME280;63844;50.042;19.224;2023-04-03T05:45:27;99634.45;;;0.02;88.26
75247;BME280;63844;50.042;19.224;2023-04-03T05:47:53;99634.06;;;0.04;88.43
75247;BME280;63844;50.042;19.224;2023-04-03T05:50:20;99637.42;;;0.01;88.54
75247;BME280;63844;50.042;19.224;2023-04-03T05:52:49;99639.33;;;0.01;88.29
75247;BME280;63844;50.042;19.224;2023-04-03T05:55:17;99641.92;;;0.03;88.63
75247;BME280;63844;50.042;19.224;2023-04-03T05:57:44;99649.04;;;0.04;88.99
75247;BME280;63844;50.042;19.224;2023-04-03T06:00:13;99647.38;;;0.10;89.26
75247;BME280;63844;50.042;19.224;2023-04-03T06:02:42;99651.45;;;0.05;88.11
75247;BME280;63844;50.042;19.224;2023-04-03T06:05:09;99659.83;;;-0.10;86.81
75247;BME280;63844;50.042;19.224;2023-04-03T06:07:37;99661.04;;;-0.10;86.40
75247;BME280;63844;50.042;19.224;2023-04-03T06:10:04;99659.33;;;-0.12;86.38
75247;BME280;63844;50.042;19.224;2023-04-03T06:12:31;99661.45;;;-0.16;86.07
75247;BME280;63844;50.042;19.224;2023-04-03T06:14:58;99665.06;;;-0.12;86.94
75247;BME280;63844;50.042;19.224;2023-04-03T06:17:24;99666.67;;;-0.01;86.92
75247;BME280;63844;50.042;19.224;2023-04-03T06:19:51;99669.35;;;0.07;86.63
75247;BME280;63844;50.042;19.224;2023-04-03T06:22:18;99665.45;;;0.13;86.71
75247;BME280;63844;50.042;19.224;2023-04-03T06:24:44;99668.35;;;0.17;86.30
75247;BME280;63844;50.042;19.224;2023-04-03T06:27:11;99669.83;;;0.25;85.33
75247;BME280;63844;50.042;19.224;2023-04-03T06:29:38;99669.96;;;0.28;84.59
75247;BME280;63844;50.042;19.224;2023-04-03T06:32:05;99673.85;;;0.36;84.89
75247;BME280;63844;50.042;19.224;2023-04-03T06:34:32;99664.98;;;0.46;84.19
75247;BME280;63844;50.042;19.224;2023-04-03T06:36:59;99670.14;;;0.52;83.60
75247;BME280;63844;50.042;19.224;2023-04-03T06:39:26;99673.98;;;0.63;83.67
75247;BME280;63844;50.042;19.224;2023-04-03T06:41:53;99673.05;;;0.79;83.84
75247;BME280;63844;50.042;19.224;2023-04-03T06:44:20;99670.81;;;0.88;83.73
75247;BME280;63844;50.042;19.224;2023-04-03T06:46:46;99668.30;;;0.93;81.54
75247;BME280;63844;50.042;19.224;2023-04-03T06:49:13;99670.27;;;1.00;81.98
75247;BME280;63844;50.042;19.224;2023-04-03T06:51:40;99675.02;;;1.09;81.71
75247;BME280;63844;50.042;19.224;2023-04-03T06:54:06;99677.77;;;1.10;80.51
75247;BME280;63844;50.042;19.224;2023-04-03T06:56:35;99682.77;;;1.03;80.09
75247;BME280;63844;50.042;19.224;2023-04-03T06:59:02;99689.33;;;1.07;81.39
75247;BME280;63844;50.042;19.224;2023-04-03T07:01:29;99687.92;;;1.08;80.84
75247;BME280;63844;50.042;19.224;2023-04-03T07:03:56;99691.11;;;1.04;80.79
75247;BME280;63844;50.042;19.224;2023-04-03T07:06:23;99696.00;;;1.04;79.54
75247;BME280;63844;50.042;19.224;2023-04-03T07:08:49;99696.74;;;1.01;78.65
75247;BME280;63844;50.042;19.224;2023-04-03T07:11:16;99700.83;;;1.07;80.04
75247;BME280;63844;50.042;19.224;2023-04-03T07:13:43;99702.69;;;1.11;79.18
75247;BME280;63844;50.042;19.224;2023-04-03T07:16:10;99708.65;;;1.09;78.90
75247;BME280;63844;50.042;19.224;2023-04-03T07:18:37;99707.33;;;1.15;78.86
75247;BME280;63844;50.042;19.224;2023-04-03T07:21:04;99706.75;;;1.19;77.99
75247;BME280;63844;50.042;19.224;2023-04-03T07:23:30;99712.91;;;1.15;75.85
75247;BME280;63844;50.042;19.224;2023-04-03T07:25:57;99716.31;;;1.10;74.72
75247;BME280;63844;50.042;19.224;2023-04-03T07:28:24;99718.67;;;1.04;74.10
75247;BME280;63844;50.042;19.224;2023-04-03T07:30:54;99723.77;;;1.01;73.47
75247;BME280;63844;50.042;19.224;2023-04-03T07:33:25;99728.63;;;1.01;73.28
75247;BME280;63844;50.042;19.224;2023-04-03T07:35:52;99728.75;;;1.06;73.01
75247;BME280;63844;50.042;19.224;2023-04-03T07:38:19;99725.36;;;1.11;72.87
75247;BME280;63844;50.042;19.224;2023-04-03T07:40:47;99721.35;;;0.88;69.65
75247;BME280;63844;50.042;19.224;2023-04-03T07:43:17;99727.67;;;0.97;72.23
75247;BME280;63844;50.042;19.224;2023-04-03T07:45:44;99720.98;;;1.00;71.12
75247;BME280;63844;50.042;19.224;2023-04-03T07:48:11;99718.59;;;0.86;69.48
75247;BME280;63844;50.042;19.224;2023-04-03T07:50:42;99727.55;;;0.93;71.77
75247;BME280;63844;50.042;19.224;2023-04-03T07:53:08;99730.64;;;0.96;71.94
75247;BME280;63844;50.042;19.224;2023-04-03T07:55:35;99730.27;;;1.08;72.62
75247;BME280;63844;50.042;19.224;2023-04-03T07:58:10;99733.18;;;1.12;71.74
75247;BME280;63844;50.042;19.224;2023-04-03T08:00:38;99733.20;;;1.21;71.96
75247;BME280;63844;50.042;19.224;2023-04-03T08:03:05;99733.55;;;1.32;72.86
75247;BME280;63844;50.042;19.224;2023-04-03T08:05:37;99729.95;;;1.39;71.70
75247;BME280;63844;50.042;19.224;2023-04-03T08:08:04;99735.64;;;1.43;71.53
75247;BME280;63844;50.042;19.224;2023-04-03T08:10:31;99733.94;;;1.31;70.11
75247;BME280;63844;50.042;19.224;2023-04-03T08:12:57;99736.45;;;1.15;69.78
75247;BME280;63844;50.042;19.224;2023-04-03T08:15:24;99729.14;;;1.14;70.25
75247;BME280;63844;50.042;19.224;2023-04-03T08:17:50;99733.27;;;1.07;69.89
75247;BME280;63844;50.042;19.224;2023-04-03T08:20:18;99730.48;;;1.27;69.26
75247;BME280;63844;50.042;19.224;2023-04-03T08:22:45;99730.02;;;1.46;69.66
75247;BME280;63844;50.042;19.224;2023-04-03T08:25:11;99729.64;;;1.57;69.75
75247;BME280;63844;50.042;19.224;2023-04-03T08:27:38;99729.50;;;1.66;69.15
75247;BME280;63844;50.042;19.224;2023-04-03T08:30:05;99732.47;;;1.84;69.05
75247;BME280;63844;50.042;19.224;2023-04-03T08:32:35;99732.43;;;1.67;65.61
75247;BME280;63844;50.042;19.224;2023-04-03T08:35:04;99731.44;;;1.74;67.29
75247;BME280;63844;50.042;19.224;2023-04-03T08:37:31;99737.95;;;1.98;67.10
75247;BME280;63844;50.042;19.224;2023-04-03T08:39:58;99740.27;;;2.05;66.07
75247;BME280;63844;50.042;19.224;2023-04-03T08:45:13;99739.89;;;1.98;65.54
75247;BME280;63844;50.042;19.224;2023-04-03T08:48:05;99742.95;;;2.20;65.83
75247;BME280;63844;50.042;19.224;2023-04-03T08:50:37;99741.98;;;2.16;63.95
75247;BME280;63844;50.042;19.224;2023-04-03T08:53:06;99744.94;;;2.25;64.31
75247;BME280;63844;50.042;19.224;2023-04-03T08:55:43;99739.70;;;2.43;64.34
75247;BME280;63844;50.042;19.224;2023-04-03T08:58:14;99746.46;;;2.18;61.53
75247;BME280;63844;50.042;19.224;2023-04-03T09:01:23;99746.21;;;2.05;62.80
75247;BME280;63844;50.042;19.224;2023-04-03T09:03:51;99740.61;;;2.06;61.50
75247;BME280;63844;50.042;19.224;2023-04-03T09:06:23;99746.09;;;2.21;62.41
75247;BME280;63844;50.042;19.224;2023-04-03T09:09:06;99744.16;;;2.21;61.14
75247;BME280;63844;50.042;19.224;2023-04-03T09:14:46;99745.06;;;2.28;60.40
75247;BME280;63844;50.042;19.224;2023-04-03T09:20:36;99754.71;;;2.17;59.46
75247;BME280;63844;50.042;19.224;2023-04-03T09:23:22;99758.87;;;2.28;59.49
75247;BME280;63844;50.042;19.224;2023-04-03T09:25:53;99759.42;;;2.35;56.63
75247;BME280;63844;50.042;19.224;2023-04-03T09:28:21;99757.91;;;2.40;56.80
75247;BME280;63844;50.042;19.224;2023-04-03T09:30:47;99753.65;;;2.53;57.60
75247;BME280;63844;50.042;19.224;2023-04-03T09:33:14;99756.49;;;2.58;58.22
75247;BME280;63844;50.042;19.224;2023-04-03T09:35:49;99757.16;;;2.43;58.75
75247;BME280;63844;50.042;19.224;2023-04-03T09:38:19;99762.55;;;2.85;60.27
75247;BME280;63844;50.042;19.224;2023-04-03T09:41:03;99766.73;;;2.94;57.77
75247;BME280;63844;50.042;19.224;2023-04-03T09:43:32;99765.80;;;2.80;56.88
75247;BME280;63844;50.042;19.224;2023-04-03T09:46:30;99766.51;;;2.87;57.50
75247;BME280;63844;50.042;19.224;2023-04-03T09:49:01;99769.48;;;3.03;57.18
75247;BME280;63844;50.042;19.224;2023-04-03T09:51:29;99773.41;;;3.00;56.22
75247;BME280;63844;50.042;19.224;2023-04-03T09:53:56;99775.46;;;2.94;55.38
75247;BME280;63844;50.042;19.224;2023-04-03T09:56:26;99773.96;;;2.90;55.85
75247;BME280;63844;50.042;19.224;2023-04-03T10:04:19;99771.80;;;3.09;55.60
75247;BME280;63844;50.042;19.224;2023-04-03T10:06:49;99770.23;;;3.31;58.38
75247;BME280;63844;50.042;19.224;2023-04-03T10:12:09;99774.15;;;3.50;57.06
75247;BME280;63844;50.042;19.224;2023-04-03T10:15:00;99772.02;;;3.22;55.22
75247;BME280;63844;50.042;19.224;2023-04-03T10:28:45;99777.16;;;3.83;55.19
75247;BME280;63844;50.042;19.224;2023-04-03T10:31:33;99778.27;;;3.81;52.61
75247;BME280;63844;50.042;19.224;2023-04-03T10:34:19;99771.90;;;3.76;51.88
75247;BME280;63844;50.042;19.224;2023-04-03T10:37:16;99775.69;;;3.93;53.32
75247;BME280;63844;50.042;19.224;2023-04-03T10:43:04;99769.02;;;4.32;53.49
75247;BME280;63844;50.042;19.224;2023-04-03T10:46:10;99767.17;;;4.60;55.14
75247;BME280;63844;50.042;19.224;2023-04-03T10:51:54;99754.77;;;5.27;51.83
75247;BME280;63844;50.042;19.224;2023-04-03T10:54:26;99755.05;;;5.29;52.37
75247;BME280;63844;50.042;19.224;2023-04-03T10:57:03;99758.17;;;5.08;49.84
75247;BME280;63844;50.042;19.224;2023-04-03T10:59:38;99759.40;;;4.79;48.76
75247;BME280;63844;50.042;19.224;2023-04-03T11:04:37;99760.13;;;4.61;50.43
75247;BME280;63844;50.042;19.224;2023-04-03T11:07:21;99761.78;;;4.64;50.67
75247;BME280;63844;50.042;19.224;2023-04-03T11:09:53;99757.20;;;4.82;51.65
75247;BME280;63844;50.042;19.224;2023-04-03T11:12:25;99758.85;;;5.09;51.03
75247;BME280;63844;50.042;19.224;2023-04-03T11:14:55;99747.66;;;5.30;49.91
75247;BME280;63844;50.042;19.224;2023-04-03T11:17:39;99740.19;;;5.59;51.10
75247;BME280;63844;50.042;19.224;2023-04-03T11:23:03;99737.67;;;5.56;48.55
75247;BME280;63844;50.042;19.224;2023-04-03T11:25:34;99737.89;;;5.80;50.13
75247;BME280;63844;50.042;19.224;2023-04-03T11:28:06;99738.86;;;6.08;50.09
75247;BME280;63844;50.042;19.224;2023-04-03T11:30:42;99741.40;;;6.26;49.69
75247;BME280;63844;50.042;19.224;2023-04-03T11:36:08;99735.02;;;6.28;47.99
75247;BME280;63844;50.042;19.224;2023-04-03T11:38:41;99728.85;;;6.13;49.41
75247;BME280;63844;50.042;19.224;2023-04-03T11:41:09;99733.77;;;6.08;49.24
75247;BME280;63844;50.042;19.224;2023-04-03T11:43:43;99737.89;;;6.06;49.73
75247;BME280;63844;50.042;19.224;2023-04-03T11:46:21;99736.29;;;5.97;49.28
75247;BME280;63844;50.042;19.224;2023-04-03T11:48:49;99735.91;;;5.82;49.17
75247;BME280;63844;50.042;19.224;2023-04-03T11:54:34;99731.92;;;5.54;48.82
75247;BME280;63844;50.042;19.224;2023-04-03T12:16:27;99731.48;;;4.98;48.77
75247;BME280;63844;50.042;19.224;2023-04-03T12:26:27;99727.84;;;3.81;50.30
75247;BME280;63844;50.042;19.224;2023-04-03T12:28:54;99730.41;;;4.02;50.85
75247;BME280;63844;50.042;19.224;2023-04-03T12:31:24;99723.93;;;4.51;52.04
75247;BME280;63844;50.042;19.224;2023-04-03T12:37:06;99709.61;;;5.39;47.01
75247;BME280;63844;50.042;19.224;2023-04-03T12:45:23;99702.04;;;6.35;45.48
75247;BME280;63844;50.042;19.224;2023-04-03T12:47:52;99704.51;;;6.16;45.80
75247;BME280;63844;50.042;19.224;2023-04-03T12:50:31;99702.11;;;6.14;47.12
75247;BME280;63844;50.042;19.224;2023-04-03T12:53:01;99704.53;;;5.95;46.38
75247;BME280;63844;50.042;19.224;2023-04-03T12:55:30;99705.55;;;5.86;47.74
75247;BME280;63844;50.042;19.224;2023-04-03T12:57:57;99708.29;;;5.62;47.25
75247;BME280;63844;50.042;19.224;2023-04-03T13:02:53;99709.98;;;4.95;45.86
75247;BME280;63844;50.042;19.224;2023-04-03T13:05:21;99702.98;;;4.78;47.07
75247;BME280;63844;50.042;19.224;2023-04-03T13:07:53;99705.86;;;4.82;48.55
75247;BME280;63844;50.042;19.224;2023-04-03T13:10:23;99704.63;;;4.76;47.42
75247;BME280;63844;50.042;19.224;2023-04-03T13:12:53;99707.16;;;4.73;47.76
75247;BME280;63844;50.042;19.224;2023-04-03T13:15:27;99708.19;;;4.91;48.40
75247;BME280;63844;50.042;19.224;2023-04-03T13:17:55;99708.69;;;5.19;46.92
75247;BME280;63844;50.042;19.224;2023-04-03T13:20:26;99708.26;;;5.21;45.38
75247;BME280;63844;50.042;19.224;2023-04-03T13:23:05;99718.08;;;4.89;44.66
75247;BME280;63844;50.042;19.224;2023-04-03T13:25:37;99716.85;;;4.48;44.89
75247;BME280;63844;50.042;19.224;2023-04-03T13:28:09;99723.07;;;4.14;44.25
75247;BME280;63844;50.042;19.224;2023-04-03T13:30:38;99723.13;;;3.87;45.05
75247;BME280;63844;50.042;19.224;2023-04-03T13:33:20;99720.92;;;3.84;45.88
75247;BME280;63844;50.042;19.224;2023-04-03T13:35:47;99719.17;;;3.78;46.19
75247;BME280;63844;50.042;19.224;2023-04-03T13:40:48;99718.63;;;3.58;45.31
75247;BME280;63844;50.042;19.224;2023-04-03T13:43:28;99720.71;;;3.66;45.03
75247;BME280;63844;50.042;19.224;2023-04-03T13:46:05;99722.66;;;3.65;44.60
75247;BME280;63844;50.042;19.224;2023-04-03T13:48:42;99718.52;;;3.70;45.16
75247;BME280;63844;50.042;19.224;2023-04-03T13:53:54;99714.49;;;3.55;44.17
75247;BME280;63844;50.042;19.224;2023-04-03T13:56:25;99712.98;;;3.53;44.29
75247;BME280;63844;50.042;19.224;2023-04-03T13:58:55;99711.23;;;3.61;45.80
75247;BME280;63844;50.042;19.224;2023-04-03T14:01:23;99709.69;;;3.72;46.55
75247;BME280;63844;50.042;19.224;2023-04-03T14:06:22;99708.79;;;3.79;47.49
75247;BME280;63844;50.042;19.224;2023-04-03T14:08:50;99712.08;;;3.81;47.56
75247;BME280;63844;50.042;19.224;2023-04-03T14:11:24;99710.08;;;3.84;47.44
75247;BME280;63844;50.042;19.224;2023-04-03T14:13:51;99712.93;;;3.89;48.39
75247;BME280;63844;50.042;19.224;2023-04-03T14:16:21;99714.50;;;3.95;48.43
75247;BME280;63844;50.042;19.224;2023-04-03T14:18:49;99716.81;;;4.06;49.29
75247;BME280;63844;50.042;19.224;2023-04-03T14:21:17;99718.04;;;4.13;49.15
75247;BME280;63844;50.042;19.224;2023-04-03T14:23:44;99718.04;;;4.19;48.79
75247;BME280;63844;50.042;19.224;2023-04-03T14:26:13;99720.35;;;4.24;48.88
75247;BME280;63844;50.042;19.224;2023-04-03T14:28:44;99715.04;;;4.33;49.13
75247;BME280;63844;50.042;19.224;2023-04-03T14:31:12;99719.96;;;4.37;49.03
75247;BME280;63844;50.042;19.224;2023-04-03T14:33:40;99719.30;;;4.30;46.87
75247;BME280;63844;50.042;19.224;2023-04-03T14:36:27;99718.98;;;4.42;47.53
75247;BME280;63844;50.042;19.224;2023-04-03T14:38:54;99718.21;;;4.67;46.48
75247;BME280;63844;50.042;19.224;2023-04-03T14:41:23;99717.11;;;4.97;46.45
75247;BME280;63844;50.042;19.224;2023-04-03T14:43:50;99714.59;;;5.15;45.72
75247;BME280;63844;50.042;19.224;2023-04-03T14:46:24;99709.89;;;5.20;45.45
75247;BME280;63844;50.042;19.224;2023-04-03T14:48:52;99710.91;;;5.99;44.29
75247;BME280;63844;50.042;19.224;2023-04-03T14:51:18;99706.91;;;6.59;42.41